sensor_id;sensor_type;location;lat;lon;timestamp;pressure;altitude;pressure_sealevel;temperature;humidity
69058;BME280;56128;37.534;-122.308;2024-03-23T00:55:17;101050.56;;;16.80;100.00
69058;BME280;56128;37.534;-122.308;2024-03-23T00:57:43;101048.25;;;16.85;100.00
69058;BME280;56128;37.534;-122.308;2024-03-23T01:00:10;101045.69;;;16.56;100.00
69058;BME280;56128;37.534;-122.308;2024-03-23T01:02:37;101050.88;;;16.67;100.00
69058;BME280;56128;37.534;-122.308;2024-03-23T01:05:09;101033.78;;;16.77;100.00
69058;BME280;56128;37.534;-122.308;2024-03-23T01:07:37;101037.94;;;16.71;100.00
69058;BME280;56128;37.534;-122.308;2024-03-23T01:10:04;101024.84;;;16.38;100.00
69058;BME280;56128;37.534;-122.308;2024-03-23T01:12:35;101021.00;;;16.41;100.00
69058;BME280;56128;37.534;-122.308;2024-03-23T01:15:03;101013.63;;;16.43;100.00
69058;BME280;56128;37.534;-122.308;2024-03-23T01:17:29;101019.28;;;16.12;100.00
69058;BME280;56128;37.534;-122.308;2024-03-23T01:19:58;101015.44;;;16.15;100.00
69058;BME280;56128;37.534;-122.308;2024-03-23T01:22:26;101013.56;;;16.25;100.00
69058;BME280;56128;37.534;-122.308;2024-03-23T01:24:53;101015.00;;;16.19;100.00
69058;BME280;56128;37.534;-122.308;2024-03-23T01:27:20;101018.34;;;15.74;100.00
69058;BME280;56128;37.534;-122.308;2024-03-23T01:29:47;101022.94;;;15.64;100.00
69058;BME280;56128;37.534;-122.308;2024-03-23T01:32:14;101012.72;;;15.48;100.00
69058;BME280;56128;37.534;-122.308;2024-03-23T01:34:41;101014.09;;;15.81;100.00
69058;BME280;56128;37.534;-122.308;2024-03-23T01:37:07;101018.22;;;15.85;100.00
69058;BME280;56128;37.534;-122.308;2024-03-23T01:39:37;101016.06;;;15.79;100.00
69058;BME280;56128;37.534;-122.308;2024-03-23T01:42:04;101017.66;;;15.82;100.00
69058;BME280;56128;37.534;-122.308;2024-03-23T01:44:31;101009.69;;;15.70;100.00
69058;BME280;56128;37.534;-122.308;2024-03-23T01:46:58;101010.16;;;15.36;100.00
69058;BME280;56128;37.534;-122.308;2024-03-23T01:49:26;101006.75;;;15.34;100.00
69058;BME280;56128;37.534;-122.308;2024-03-23T01:51:53;101002.75;;;15.48;100.00
69058;BME280;56128;37.534;-122.308;2024-03-23T01:54:20;101002.22;;;15.25;100.00
69058;BME280;56128;37.534;-122.308;2024-03-23T01:56:50;100996.53;;;15.18;100.00
69058;BME280;56128;37.534;-122.308;2024-03-23T01:59:17;100995.81;;;15.06;100.00
69058;BME280;56128;37.534;-122.308;2024-03-23T02:01:46;100986.03;;;14.86;100.00
69058;BME280;56128;37.534;-122.308;2024-03-23T02:04:14;100985.44;;;14.92;100.00
69058;BME280;56128;37.534;-122.308;2024-03-23T02:06:41;100997.19;;;14.71;100.00
69058;BME280;56128;37.534;-122.308;2024-03-23T02:09:09;101004.91;;;15.05;100.00
69058;BME280;56128;37.534;-122.308;2024-03-23T02:11:35;101002.34;;;14.94;100.00
69058;BME280;56128;37.534;-122.308;2024-03-23T02:14:02;100998.94;;;14.82;100.00
69058;BME280;56128;37.534;-122.308;2024-03-23T02:16:29;100997.66;;;14.96;100.00
69058;BME280;56128;37.534;-122.308;2024-03-23T02:18:57;101013.28;;;15.12;100.00
69058;BME280;56128;37.534;-122.308;2024-03-23T02:21:24;101025.19;;;15.09;100.00
69058;BME280;56128;37.534;-122.308;2024-03-23T02:23:53;101021.63;;;15.09;100.00
69058;BME280;56128;37.534;-122.308;2024-03-23T02:26:21;101026.75;;;15.02;100.00
69058;BME280;56128;37.534;-122.308;2024-03-23T02:28:48;101031.81;;;14.96;100.00
69058;BME280;56128;37.534;-122.308;2024-03-23T02:31:15;101032.81;;;14.85;100.00
69058;BME280;56128;37.534;-122.308;2024-03-23T02:33:43;101037.34;;;14.74;100.00
69058;BME280;56128;37.534;-122.308;2024-03-23T02:36:10;101033.97;;;14.51;100.00
69058;BME280;56128;37.534;-122.308;2024-03-23T02:38:37;101029.41;;;14.42;100.00
69058;BME280;56128;37.534;-122.308;2024-03-23T02:41:05;101018.00;;;14.28;100.00
69058;BME280;56128;37.534;-122.308;2024-03-23T02:43:34;101020.94;;;14.16;100.00
69058;BME280;56128;37.534;-122.308;2024-03-23T02:46:01;101009.16;;;14.17;100.00
69058;BME280;56128;37.534;-122.308;2024-03-23T02:48:28;101006.31;;;13.87;100.00
69058;BME280;56128;37.534;-122.308;2024-03-23T02:50:55;101009.28;;;13.63;100.00
69058;BME280;56128;37.534;-122.308;2024-03-23T02:53:22;101020.06;;;13.84;100.00
69058;BME280;56128;37.534;-122.308;2024-03-23T02:55:49;101015.19;;;13.57;100.00
69058;BME280;56128;37.534;-122.308;2024-03-23T02:58:16;101031.50;;;13.44;100.00
69058;BME280;56128;37.534;-122.308;2024-03-23T03:00:43;101029.41;;;13.47;100.00
69058;BME280;56128;37.534;-122.308;2024-03-23T03:03:09;101010.75;;;13.35;100.00
69058;BME280;56128;37.534;-122.308;2024-03-23T03:05:36;101003.25;;;13.17;100.00
69058;BME280;56128;37.534;-122.308;2024-03-23T03:08:03;101011.13;;;13.30;100.00
69058;BME280;56128;37.534;-122.308;2024-03-23T03:10:30;101029.69;;;13.33;100.00
69058;BME280;56128;37.534;-122.308;2024-03-23T03:13:01;101035.28;;;13.41;100.00
69058;BME280;56128;37.534;-122.308;2024-03-23T03:15:28;101026.88;;;13.35;100.00
69058;BME280;56128;37.534;-122.308;2024-03-23T03:17:57;101027.88;;;13.22;100.00
69058;BME280;56128;37.534;-122.308;2024-03-23T03:20:24;101038.00;;;13.30;100.00
69058;BME280;56128;37.534;-122.308;2024-03-23T03:22:51;101036.78;;;13.34;100.00
69058;BME280;56128;37.534;-122.308;2024-03-23T03:25:20;101032.19;;;13.13;100.00
69058;BME280;56128;37.534;-122.308;2024-03-23T03:27:47;101042.81;;;13.15;100.00
69058;BME280;56128;37.534;-122.308;2024-03-23T03:30:14;101050.03;;;13.14;100.00
69058;BME280;56128;37.534;-122.308;2024-03-23T03:32:42;101053.72;;;13.02;100.00
69058;BME280;56128;37.534;-122.308;2024-03-23T03:35:09;101070.84;;;12.90;100.00
69058;BME280;56128;37.534;-122.308;2024-03-23T03:37:36;101083.75;;;12.96;100.00
69058;BME280;56128;37.534;-122.308;2024-03-23T03:40:03;101079.53;;;12.71;100.00
69058;BME280;56128;37.534;-122.308;2024-03-23T03:42:30;101082.19;;;12.82;100.00
69058;BME280;56128;37.534;-122.308;2024-03-23T03:44:56;101094.28;;;12.88;100.00
69058;BME280;56128;37.534;-122.308;2024-03-23T03:47:23;101064.47;;;12.91;100.00
69058;BME280;56128;37.534;-122.308;2024-03-23T03:49:50;101064.63;;;12.78;100.00
69058;BME280;56128;37.534;-122.308;2024-03-23T03:52:17;101056.94;;;12.85;100.00
69058;BME280;56128;37.534;-122.308;2024-03-23T03:54:43;101055.72;;;12.77;100.00
69058;BME280;56128;37.534;-122.308;2024-03-23T03:57:10;101062.94;;;12.77;100.00
69058;BME280;56128;37.534;-122.308;2024-03-23T03:59:37;101060.63;;;12.61;100.00
69058;BME280;56128;37.534;-122.308;2024-03-23T04:02:04;101056.00;;;12.63;100.00
69058;BME280;56128;37.534;-122.308;2024-03-23T04:04:31;101048.91;;;12.62;100.00
69058;BME280;56128;37.534;-122.308;2024-03-23T04:07:01;101045.13;;;12.53;100.00
69058;BME280;56128;37.534;-122.308;2024-03-23T04:09:28;101043.66;;;12.60;100.00
69058;BME280;56128;37.534;-122.308;2024-03-23T04:11:56;101045.25;;;12.63;100.00
69058;BME280;56128;37.534;-122.308;2024-03-23T04:14:22;101050.13;;;12.58;100.00
69058;BME280;56128;37.534;-122.308;2024-03-23T04:16:49;101046.09;;;12.52;100.00
69058;BME280;56128;37.534;-122.308;2024-03-23T04:19:15;101044.63;;;12.59;100.00
69058;BME280;56128;37.534;-122.308;2024-03-23T04:21:41;101051.84;;;12.47;100.00
69058;BME280;56128;37.534;-122.308;2024-03-23T04:24:08;101062.81;;;12.33;100.00
69058;BME280;56128;37.534;-122.308;2024-03-23T04:26:43;101071.97;;;12.53;100.00
69058;BME280;56128;37.534;-122.308;2024-03-23T04:29:09;101077.97;;;12.45;100.00
69058;BME280;56128;37.534;-122.308;2024-03-23T04:31:36;101079.78;;;12.45;100.00
69058;BME280;56128;37.534;-122.308;2024-03-23T04:34:02;101081.25;;;12.49;100.00
69058;BME280;56128;37.534;-122.308;2024-03-23T04:36:28;101071.63;;;12.46;100.00
69058;BME280;56128;37.534;-122.308;2024-03-23T04:38:54;101082.56;;;12.43;100.00
69058;BME280;56128;37.534;-122.308;2024-03-23T04:41:21;101084.28;;;12.44;100.00
69058;BME280;56128;37.534;-122.308;2024-03-23T04:43:47;101088.22;;;12.52;100.00
69058;BME280;56128;37.534;-122.308;2024-03-23T04:46:13;101077.69;;;12.48;100.00
69058;BME280;56128;37.534;-122.308;2024-03-23T04:48:39;101080.75;;;12.44;100.00
69058;BME280;56128;37.534;-122.308;2024-03-23T04:51:05;101096.75;;;12.45;100.00
69058;BME280;56128;37.534;-122.308;2024-03-23T04:53:32;101100.47;;;12.09;100.00
69058;BME280;56128;37.534;-122.308;2024-03-23T04:55:58;101086.50;;;12.39;100.00
69058;BME280;56128;37.534;-122.308;2024-03-23T04:58:25;101082.72;;;12.42;100.00
69058;BME280;56128;37.534;-122.308;2024-03-23T05:00:55;101081.00;;;12.41;100.00
69058;BME280;56128;37.534;-122.308;2024-03-23T05:03:21;101071.00;;;12.20;100.00
69058;BME280;56128;37.534;-122.308;2024-03-23T05:05:48;101059.28;;;12.55;100.00
69058;BME280;56128;37.534;-122.308;2024-03-23T05:08:15;101059.53;;;12.52;100.00
69058;BME280;56128;37.534;-122.308;2024-03-23T05:10:42;101048.56;;;12.10;100.00
69058;BME280;56128;37.534;-122.308;2024-03-23T05:13:09;101055.88;;;12.53;100.00
69058;BME280;56128;37.534;-122.308;2024-03-23T05:15:36;101057.94;;;12.61;100.00
69058;BME280;56128;37.534;-122.308;2024-03-23T05:18:02;101057.44;;;12.67;100.00
69058;BME280;56128;37.534;-122.308;2024-03-23T05:20:28;101059.63;;;12.16;100.00
69058;BME280;56128;37.534;-122.308;2024-03-23T05:22:55;101057.41;;;11.99;100.00
69058;BME280;56128;37.534;-122.308;2024-03-23T05:25:21;101072.72;;;12.44;100.00
69058;BME280;56128;37.534;-122.308;2024-03-23T05:27:48;101083.53;;;12.31;100.00
69058;BME280;56128;37.534;-122.308;2024-03-23T05:30:15;101085.25;;;12.55;100.00
69058;BME280;56128;37.534;-122.308;2024-03-23T05:32:41;101073.91;;;12.28;100.00
69058;BME280;56128;37.534;-122.308;2024-03-23T05:35:09;101066.47;;;12.43;100.00
69058;BME280;56128;37.534;-122.308;2024-03-23T05:37:35;101065.16;;;12.49;100.00
69058;BME280;56128;37.534;-122.308;2024-03-23T05:40:03;101053.06;;;12.55;100.00
69058;BME280;56128;37.534;-122.308;2024-03-23T05:42:29;101040.63;;;12.54;100.00
69058;BME280;56128;37.534;-122.308;2024-03-23T05:44:56;101056.13;;;12.27;100.00
69058;BME280;56128;37.534;-122.308;2024-03-23T05:47:22;101070.63;;;12.59;100.00
69058;BME280;56128;37.534;-122.308;2024-03-23T05:49:48;101088.56;;;12.58;100.00
69058;BME280;56128;37.534;-122.308;2024-03-23T05:52:14;101089.31;;;12.60;100.00
69058;BME280;56128;37.534;-122.308;2024-03-23T05:54:40;101095.41;;;12.62;100.00
69058;BME280;56128;37.534;-122.308;2024-03-23T05:57:09;101085.91;;;11.89;100.00
69058;BME280;56128;37.534;-122.308;2024-03-23T05:59:35;101084.66;;;12.51;100.00
69058;BME280;56128;37.534;-122.308;2024-03-23T06:02:01;101082.09;;;12.61;100.00
69058;BME280;56128;37.534;-122.308;2024-03-23T06:04:27;101078.06;;;12.66;100.00
69058;BME280;56128;37.534;-122.308;2024-03-23T06:06:53;101072.09;;;12.63;100.00
69058;BME280;56128;37.534;-122.308;2024-03-23T06:09:19;101072.94;;;12.63;100.00
69058;BME280;56128;37.534;-122.308;2024-03-23T06:11:45;101062.81;;;12.67;100.00
69058;BME280;56128;37.534;-122.308;2024-03-23T06:14:12;101071.84;;;12.66;100.00
69058;BME280;56128;37.534;-122.308;2024-03-23T06:16:38;101076.22;;;12.67;100.00
69058;BME280;56128;37.534;-122.308;2024-03-23T06:19:04;101078.69;;;12.70;100.00
69058;BME280;56128;37.534;-122.308;2024-03-23T06:21:33;101078.22;;;12.42;100.00
69058;BME280;56128;37.534;-122.308;2024-03-23T06:23:59;101081.25;;;12.49;100.00
69058;BME280;56128;37.534;-122.308;2024-03-23T06:26:25;101081.72;;;12.20;100.00
69058;BME280;56128;37.534;-122.308;2024-03-23T06:28:51;101081.25;;;12.49;100.00
69058;BME280;56128;37.534;-122.308;2024-03-23T06:31:17;101085.41;;;12.53;100.00
69058;BME280;56128;37.534;-122.308;2024-03-23T06:33:43;101086.25;;;12.54;100.00
69058;BME280;56128;37.534;-122.308;2024-03-23T06:36:10;101083.53;;;12.31;100.00
69058;BME280;56128;37.534;-122.308;2024-03-23T06:38:37;101078.44;;;12.50;100.00
69058;BME280;56128;37.534;-122.308;2024-03-23T06:41:04;101074.03;;;12.27;100.00
69058;BME280;56128;37.534;-122.308;2024-03-23T06:43:31;101064.88;;;12.52;100.00
69058;BME280;56128;37.534;-122.308;2024-03-23T06:45:57;101052.09;;;12.22;100.00
69058;BME280;56128;37.534;-122.308;2024-03-23T06:48:23;101072.72;;;12.44;100.00
69058;BME280;56128;37.534;-122.308;2024-03-23T06:50:54;101064.38;;;12.01;100.00
69058;BME280;56128;37.534;-122.308;2024-03-23T06:53:20;101070.50;;;12.38;100.00
69058;BME280;56128;37.534;-122.308;2024-03-23T06:55:51;101076.25;;;12.44;100.00
69058;BME280;56128;37.534;-122.308;2024-03-23T06:58:22;101073.31;;;12.25;100.00
69058;BME280;56128;37.534;-122.308;2024-03-23T07:00:48;101081.59;;;12.22;100.00
69058;BME280;56128;37.534;-122.308;2024-03-23T07:03:16;101074.50;;;12.09;100.00
69058;BME280;56128;37.534;-122.308;2024-03-23T07:05:42;101075.59;;;12.07;100.00
69058;BME280;56128;37.534;-122.308;2024-03-23T07:08:08;101071.09;;;12.07;100.00
69058;BME280;56128;37.534;-122.308;2024-03-23T07:10:34;101076.13;;;11.88;100.00
69058;BME280;56128;37.534;-122.308;2024-03-23T07:13:01;101083.75;;;12.05;100.00
69058;BME280;56128;37.534;-122.308;2024-03-23T07:15:27;101084.00;;;12.02;100.00
69058;BME280;56128;37.534;-122.308;2024-03-23T07:17:53;101085.44;;;11.95;100.00
69058;BME280;56128;37.534;-122.308;2024-03-23T07:20:19;101082.00;;;11.93;100.00
69058;BME280;56128;37.534;-122.308;2024-03-23T07:22:46;101082.13;;;11.91;100.00
69058;BME280;56128;37.534;-122.308;2024-03-23T07:25:13;101084.19;;;11.88;100.00
69058;BME280;56128;37.534;-122.308;2024-03-23T07:27:39;101082.72;;;11.83;100.00
69058;BME280;56128;37.534;-122.308;2024-03-23T07:30:06;101075.09;;;11.66;100.00
69058;BME280;56128;37.534;-122.308;2024-03-23T07:32:33;101071.53;;;11.30;100.00
69058;BME280;56128;37.534;-122.308;2024-03-23T07:34:59;101075.34;;;10.77;100.00
69058;BME280;56128;37.534;-122.308;2024-03-23T07:37:25;101060.94;;;10.54;100.00
69058;BME280;56128;37.534;-122.308;2024-03-23T07:39:51;101065.69;;;10.50;100.00
69058;BME280;56128;37.534;-122.308;2024-03-23T07:42:17;101060.00;;;10.42;100.00
69058;BME280;56128;37.534;-122.308;2024-03-23T07:44:44;101065.78;;;10.36;100.00
69058;BME280;56128;37.534;-122.308;2024-03-23T07:47:10;101061.25;;;10.23;100.00
69058;BME280;56128;37.534;-122.308;2024-03-23T07:49:36;101058.59;;;10.11;100.00
69058;BME280;56128;37.534;-122.308;2024-03-23T07:52:03;101058.91;;;10.06;100.00
69058;BME280;56128;37.534;-122.308;2024-03-23T07:54:29;101065.63;;;9.99;100.00
69058;BME280;56128;37.534;-122.308;2024-03-23T07:56:55;101063.63;;;9.89;100.00
69058;BME280;56128;37.534;-122.308;2024-03-23T07:59:21;101061.78;;;9.77;100.00
69058;BME280;56128;37.534;-122.308;2024-03-23T08:01:47;101064.66;;;9.74;100.00
69058;BME280;56128;37.534;-122.308;2024-03-23T08:04:13;101068.72;;;9.67;100.00
69058;BME280;56128;37.534;-122.308;2024-03-23T08:06:39;101072.75;;;9.59;100.00
69058;BME280;56128;37.534;-122.308;2024-03-23T08:09:05;101075.75;;;9.55;100.00
69058;BME280;56128;37.534;-122.308;2024-03-23T08:11:32;101077.75;;;9.51;100.00
69058;BME280;56128;37.534;-122.308;2024-03-23T08:14:01;101085.25;;;9.46;100.00
69058;BME280;56128;37.534;-122.308;2024-03-23T08:16:28;101078.59;;;9.39;100.00
69058;BME280;56128;37.534;-122.308;2024-03-23T08:18:54;101079.94;;;9.32;100.00
69058;BME280;56128;37.534;-122.308;2024-03-23T08:21:23;101071.66;;;9.22;100.00
69058;BME280;56128;37.534;-122.308;2024-03-23T08:23:51;101078.63;;;9.24;100.00
69058;BME280;56128;37.534;-122.308;2024-03-23T08:26:17;101078.63;;;9.24;100.00
69058;BME280;56128;37.534;-122.308;2024-03-23T08:28:44;101075.22;;;9.22;100.00
69058;BME280;56128;37.534;-122.308;2024-03-23T08:31:11;101080.56;;;9.22;100.00
69058;BME280;56128;37.534;-122.308;2024-03-23T08:33:38;101074.44;;;9.20;100.00
69058;BME280;56128;37.534;-122.308;2024-03-23T08:36:09;101077.97;;;9.21;100.00
69058;BME280;56128;37.534;-122.308;2024-03-23T08:38:37;101080.84;;;9.18;100.00
69058;BME280;56128;37.534;-122.308;2024-03-23T08:41:06;101088.19;;;9.14;100.00
69058;BME280;56128;37.534;-122.308;2024-03-23T08:43:35;101089.16;;;9.13;100.00
69058;BME280;56128;37.534;-122.308;2024-03-23T08:48:38;101084.75;;;9.12;100.00
69058;BME280;56128;37.534;-122.308;2024-03-23T08:51:06;101090.97;;;9.13;100.00
69058;BME280;56128;37.534;-122.308;2024-03-23T08:53:34;101087.25;;;9.15;100.00
69058;BME280;56128;37.534;-122.308;2024-03-23T08:56:00;101082.69;;;9.03;100.00
69058;BME280;56128;37.534;-122.308;2024-03-23T08:58:29;101079.03;;;8.91;100.00
69058;BME280;56128;37.534;-122.308;2024-03-23T09:00:57;101084.16;;;8.94;100.00
69058;BME280;56128;37.534;-122.308;2024-03-23T09:03:24;101082.81;;;9.01;100.00
69058;BME280;56128;37.534;-122.308;2024-03-23T09:05:51;101081.34;;;9.10;100.00
69058;BME280;56128;37.534;-122.308;2024-03-23T09:08:18;101075.00;;;9.25;100.00
69058;BME280;56128;37.534;-122.308;2024-03-23T09:10:44;101085.38;;;9.03;100.00
69058;BME280;56128;37.534;-122.308;2024-03-23T09:13:10;101076.91;;;8.96;100.00
69058;BME280;56128;37.534;-122.308;2024-03-23T09:15:37;101076.59;;;9.01;100.00
69058;BME280;56128;37.534;-122.308;2024-03-23T09:18:11;101076.25;;;8.92;100.00
69058;BME280;56128;37.534;-122.308;2024-03-23T09:20:37;101070.50;;;9.26;100.00
69058;BME280;56128;37.534;-122.308;2024-03-23T09:23:03;101074.06;;;8.85;100.00
69058;BME280;56128;37.534;-122.308;2024-03-23T09:25:29;101072.31;;;8.98;100.00
69058;BME280;56128;37.534;-122.308;2024-03-23T09:27:55;101060.81;;;9.25;100.00
69058;BME280;56128;37.534;-122.308;2024-03-23T09:30:21;101060.69;;;9.26;100.00
69058;BME280;56128;37.534;-122.308;2024-03-23T09:32:48;101067.22;;;9.08;100.00
69058;BME280;56128;37.534;-122.308;2024-03-23T09:35:14;101055.78;;;9.33;100.00
69058;BME280;56128;37.534;-122.308;2024-03-23T09:37:40;101053.72;;;9.51;100.00
69058;BME280;56128;37.534;-122.308;2024-03-23T09:40:09;101044.28;;;9.46;100.00
69058;BME280;56128;37.534;-122.308;2024-03-23T09:42:37;101042.53;;;9.59;100.00
69058;BME280;56128;37.534;-122.308;2024-03-23T09:45:10;101051.72;;;9.55;100.00
69058;BME280;56128;37.534;-122.308;2024-03-23T09:47:39;101041.88;;;9.55;100.00
69058;BME280;56128;37.534;-122.308;2024-03-23T09:50:07;101051.78;;;9.53;100.00
69058;BME280;56128;37.534;-122.308;2024-03-23T09:52:35;101046.19;;;9.43;100.00
69058;BME280;56128;37.534;-122.308;2024-03-23T09:55:01;101035.50;;;9.43;100.00
69058;BME280;56128;37.534;-122.308;2024-03-23T09:57:27;101042.16;;;9.38;100.00
69058;BME280;56128;37.534;-122.308;2024-03-23T09:59:53;101032.13;;;9.41;100.00
69058;BME280;56128;37.534;-122.308;2024-03-23T10:02:21;101031.47;;;9.38;100.00
69058;BME280;56128;37.534;-122.308;2024-03-23T10:04:47;101017.88;;;9.41;100.00
69058;BME280;56128;37.534;-122.308;2024-03-23T10:07:15;101021.19;;;9.04;100.00
69058;BME280;56128;37.534;-122.308;2024-03-23T10:09:45;101018.53;;;9.45;100.00
69058;BME280;56128;37.534;-122.308;2024-03-23T10:12:17;101020.00;;;8.96;100.00
69058;BME280;56128;37.534;-122.308;2024-03-23T10:14:44;101020.16;;;9.47;100.00
69058;BME280;56128;37.534;-122.308;2024-03-23T10:17:21;101032.09;;;9.29;100.00
69058;BME280;56128;37.534;-122.308;2024-03-23T10:19:52;101021.13;;;9.46;100.00
69058;BME280;56128;37.534;-122.308;2024-03-23T10:22:20;101042.75;;;9.69;100.00
69058;BME280;56128;37.534;-122.308;2024-03-23T10:24:47;101043.47;;;9.71;100.00
69058;BME280;56128;37.534;-122.308;2024-03-23T10:27:21;101041.47;;;9.87;100.00
69058;BME280;56128;37.534;-122.308;2024-03-23T10:29:50;101023.19;;;10.07;100.00
69058;BME280;56128;37.534;-122.308;2024-03-23T10:32:17;101019.88;;;10.03;100.00
69058;BME280;56128;37.534;-122.308;2024-03-23T10:34:44;101022.75;;;10.26;100.00
69058;BME280;56128;37.534;-122.308;2024-03-23T10:37:11;101003.47;;;10.34;100.00
69058;BME280;56128;37.534;-122.308;2024-03-23T10:39:39;101013.34;;;9.95;100.00
69058;BME280;56128;37.534;-122.308;2024-03-23T10:42:07;100997.53;;;9.66;100.00
69058;BME280;56128;37.534;-122.308;2024-03-23T10:44:34;101001.03;;;9.53;100.00
69058;BME280;56128;37.534;-122.308;2024-03-23T10:47:02;100998.34;;;9.40;100.00
69058;BME280;56128;37.534;-122.308;2024-03-23T10:49:32;101000.78;;;9.31;100.00
69058;BME280;56128;37.534;-122.308;2024-03-23T10:52:07;101003.94;;;10.02;100.00
69058;BME280;56128;37.534;-122.308;2024-03-23T10:54:33;100992.41;;;10.14;100.00
69058;BME280;56128;37.534;-122.308;2024-03-23T10:57:05;100997.50;;;10.17;100.00
69058;BME280;56128;37.534;-122.308;2024-03-23T10:59:34;100994.53;;;10.09;100.00
69058;BME280;56128;37.534;-122.308;2024-03-23T11:02:01;100989.41;;;9.80;100.00
69058;BME280;56128;37.534;-122.308;2024-03-23T11:04:31;100978.88;;;10.29;100.00
69058;BME280;56128;37.534;-122.308;2024-03-23T11:06:58;100977.84;;;10.44;100.00
69058;BME280;56128;37.534;-122.308;2024-03-23T11:09:40;100972.25;;;10.47;100.00
69058;BME280;56128;37.534;-122.308;2024-03-23T11:15:04;100972.53;;;9.67;100.00
69058;BME280;56128;37.534;-122.308;2024-03-23T11:17:31;100973.25;;;10.07;100.00
69058;BME280;56128;37.534;-122.308;2024-03-23T11:25:20;100977.28;;;10.26;100.00
69058;BME280;56128;37.534;-122.308;2024-03-23T11:27:50;100982.53;;;10.41;100.00
69058;BME280;56128;37.534;-122.308;2024-03-23T11:30:24;100981.91;;;10.37;100.00
69058;BME280;56128;37.534;-122.308;2024-03-23T11:32:54;100974.19;;;10.19;100.00
69058;BME280;56128;37.534;-122.308;2024-03-23T11:35:31;100978.88;;;10.29;100.00
69058;BME280;56128;37.534;-122.308;2024-03-23T11:38:14;100972.38;;;10.20;100.00
69058;BME280;56128;37.534;-122.308;2024-03-23T11:40:42;100974.41;;;10.16;100.00
69058;BME280;56128;37.534;-122.308;2024-03-23T11:43:18;100983.09;;;10.07;100.00
69058;BME280;56128;37.534;-122.308;2024-03-23T11:45:47;100980.41;;;10.07;100.00
69058;BME280;56128;37.534;-122.308;2024-03-23T11:48:18;100972.72;;;10.15;100.00
69058;BME280;56128;37.534;-122.308;2024-03-23T11:50:46;100973.88;;;10.11;100.00
69058;BME280;56128;37.534;-122.308;2024-03-23T11:53:23;100971.66;;;10.18;100.00
69058;BME280;56128;37.534;-122.308;2024-03-23T11:55:50;100963.06;;;10.26;100.00
69058;BME280;56128;37.534;-122.308;2024-03-23T11:58:18;100962.84;;;10.29;100.00
69058;BME280;56128;37.534;-122.308;2024-03-23T12:00:57;100968.31;;;10.27;100.00
69058;BME280;56128;37.534;-122.308;2024-03-23T12:03:25;100957.47;;;10.29;100.00
69058;BME280;56128;37.534;-122.308;2024-03-23T12:05:59;100965.94;;;10.35;100.00
69058;BME280;56128;37.534;-122.308;2024-03-23T12:08:30;100962.09;;;10.39;100.00
69058;BME280;56128;37.534;-122.308;2024-03-23T12:11:12;100973.97;;;10.48;100.00
69058;BME280;56128;37.534;-122.308;2024-03-23T12:13:41;100963.94;;;10.13;100.00
69058;BME280;56128;37.534;-122.308;2024-03-23T12:16:20;100968.81;;;10.45;100.00
69058;BME280;56128;37.534;-122.308;2024-03-23T12:18:48;100967.66;;;10.49;100.00
69058;BME280;56128;37.534;-122.308;2024-03-23T12:21:17;100980.19;;;10.36;100.00
69058;BME280;56128;37.534;-122.308;2024-03-23T12:23:44;100982.00;;;10.35;100.00
69058;BME280;56128;37.534;-122.308;2024-03-23T12:26:12;100982.19;;;10.32;100.00
69058;BME280;56128;37.534;-122.308;2024-03-23T12:28:39;100980.19;;;10.36;100.00
69058;BME280;56128;37.534;-122.308;2024-03-23T12:31:05;100984.47;;;10.38;100.00
69058;BME280;56128;37.534;-122.308;2024-03-23T12:33:31;100984.91;;;9.94;100.00
69058;BME280;56128;37.534;-122.308;2024-03-23T12:35:57;100980.06;;;10.24;100.00
69058;BME280;56128;37.534;-122.308;2024-03-23T12:38:23;100989.28;;;10.20;100.00
69058;BME280;56128;37.534;-122.308;2024-03-23T12:40:50;100983.19;;;10.18;100.00
69058;BME280;56128;37.534;-122.308;2024-03-23T12:43:17;100998.59;;;10.15;100.00
69058;BME280;56128;37.534;-122.308;2024-03-23T12:45:47;100987.38;;;10.10;100.00
69058;BME280;56128;37.534;-122.308;2024-03-23T12:48:13;100999.03;;;9.96;100.00
69058;BME280;56128;37.534;-122.308;2024-03-23T12:50:39;101009.28;;;10.15;100.00
69058;BME280;56128;37.534;-122.308;2024-03-23T12:53:06;100997.94;;;10.24;100.00
69058;BME280;56128;37.534;-122.308;2024-03-23T12:55:32;101008.22;;;10.30;100.00
69058;BME280;56128;37.534;-122.308;2024-03-23T12:58:00;101007.56;;;10.27;100.00
69058;BME280;56128;37.534;-122.308;2024-03-23T13:00:26;101011.94;;;21.48;100.00
69058;BME280;56128;37.534;-122.308;2024-03-23T13:02:52;101016.00;;;20.43;100.00
69058;BME280;56128;37.534;-122.308;2024-03-23T13:05:18;101015.81;;;19.55;100.00
69058;BME280;56128;37.534;-122.308;2024-03-23T13:07:44;101017.16;;;19.35;100.00
69058;BME280;56128;37.534;-122.308;2024-03-23T13:10:11;101024.59;;;19.08;100.00
69058;BME280;56128;37.534;-122.308;2024-03-23T13:12:37;101010.03;;;19.42;100.00
69058;BME280;56128;37.534;-122.308;2024-03-23T13:15:03;101003.91;;;19.65;100.00
69058;BME280;56128;37.534;-122.308;2024-03-23T13:17:30;101007.16;;;19.52;100.00
69058;BME280;56128;37.534;-122.308;2024-03-23T13:19:56;101010.31;;;20.05;100.00